Time;durP1;ratioP1;P1;durP2;ratioP2;P2;SDS_P1;SDS_P2;PMS_P1;PMS_P2;Temp;Humidity;BMP_temperature;BMP_pressure;BME280_temperature;BME280_humidity;BME280_pressure;Samples;Min_cycle;Max_cycle;Signal;HPM_P1;HPM_P2
2023/06/14 00:02:14;;;;;;;7.35;4.17;;;;;;;16.43;63.53;100389.56;1636512;87;21466;-53
2023/06/14 00:05:23;;;;;;;5.87;4.33;;;;;;;16.40;63.64;100392.77;1646786;85;21411;-55
2023/06/14 00:08:30;;;;;;;7.15;4.20;;;;;;;16.37;63.73;100389.05;1673306;86;21233;-54
2023/06/14 00:11:36;;;;;;;6.35;4.30;;;;;;;16.33;63.81;100382.23;1673455;86;21269;-54
2023/06/14 00:14:42;;;;;;;7.40;4.62;;;;;;;16.29;63.93;100380.97;1673424;85;21262;-54
2023/06/14 00:17:48;;;;;;;8.15;4.65;;;;;;;16.29;64.10;100385.11;1673371;86;21223;-54
2023/06/14 00:20:55;;;;;;;10.23;4.30;;;;;;;16.31;64.29;100390.42;1673355;86;21238;-56
2023/06/14 00:24:01;;;;;;;6.58;4.65;;;;;;;16.31;64.35;100389.91;1673376;84;21349;-53
2023/06/14 00:27:07;;;;;;;10.82;4.92;;;;;;;16.29;64.37;100389.78;1673512;86;21238;-53
2023/06/14 00:30:16;;;;;;;7.28;4.35;;;;;;;16.26;64.36;100380.54;1673368;86;21211;-53
2023/06/14 00:33:23;;;;;;;8.08;4.70;;;;;;;16.19;64.35;100375.01;1673352;86;21245;-54
2023/06/14 00:36:29;;;;;;;6.78;4.47;;;;;;;16.14;64.38;100380.31;1673347;86;21219;-54
2023/06/14 00:39:34;;;;;;;8.15;4.72;;;;;;;16.10;64.44;100386.48;1673363;86;21774;-53
2023/06/14 00:42:40;;;;;;;9.38;4.47;;;;;;;16.06;64.48;100381.89;1673416;86;21274;-53
2023/06/14 00:45:46;;;;;;;8.58;4.75;;;;;;;16.04;64.62;100381.28;1673378;86;21789;-54
2023/06/14 00:48:55;;;;;;;8.15;4.28;;;;;;;16.03;64.76;100377.35;1673370;86;21229;-53
2023/06/14 00:52:02;;;;;;;9.88;4.78;;;;;;;15.99;64.84;100378.30;1673346;85;21234;-54
2023/06/14 00:55:08;;;;;;;9.53;4.60;;;;;;;15.97;64.91;100370.75;1673374;86;21258;-54
2023/06/14 00:58:14;;;;;;;8.75;4.50;;;;;;;15.93;64.93;100377.77;1673452;86;21250;-53
2023/06/14 01:01:21;;;;;;;12.23;5.00;;;;;;;15.89;64.94;100372.33;1673480;85;21927;-54
2023/06/14 01:04:28;;;;;;;7.22;4.70;;;;;;;15.86;65.01;100377.41;1673370;86;21758;-53
2023/06/14 01:08:12;;;;;;;7.62;4.30;;;;;;;15.81;65.08;100374.45;1660024;84;21248;-52
2023/06/14 01:11:24;;;;;;;8.38;4.72;;;;;;;15.76;65.20;100372.30;1654973;85;21247;-54
2023/06/14 01:14:31;;;;;;;10.60;4.83;;;;;;;15.73;65.34;100376.03;1654986;86;21271;-54
2023/06/14 01:17:41;;;;;;;13.13;4.87;;;;;;;15.72;65.47;100377.07;1654952;86;21295;-54
2023/06/14 01:20:52;;;;;;;8.90;4.47;;;;;;;15.71;65.58;100383.14;1654878;85;21236;-54
2023/06/14 01:23:59;;;;;;;12.82;5.00;;;;;;;15.72;65.67;100388.11;1654939;86;21225;-53
2023/06/14 01:27:05;;;;;;;18.80;5.30;;;;;;;15.71;65.74;100390.56;1654961;86;21293;-54
2023/06/14 01:30:13;;;;;;;7.90;5.20;;;;;;;15.65;65.71;100389.47;1654969;86;21450;-54
2023/06/14 01:33:21;;;;;;;11.25;5.17;;;;;;;15.63;65.85;100386.61;1638117;86;21232;-53
2023/06/14 01:36:29;;;;;;;8.50;5.15;;;;;;;15.63;65.94;100386.09;1654961;86;21235;-54
2023/06/14 01:39:35;;;;;;;10.63;5.00;;;;;;;15.59;65.92;100388.93;1661933;85;21781;-54
2023/06/14 01:42:44;;;;;;;10.43;5.40;;;;;;;15.54;65.86;100382.35;1708656;83;21366;-53
2023/06/14 01:45:52;;;;;;;7.47;4.55;;;;;;;15.47;65.89;100387.84;1708569;84;21382;-54
2023/06/14 01:48:58;;;;;;;12.37;5.80;;;;;;;15.46;66.05;100388.88;1708444;82;21204;-55
2023/06/14 01:52:05;;;;;;;9.58;4.80;;;;;;;15.45;66.21;100388.57;1685841;84;21231;-53
2023/06/14 01:55:14;;;;;;;7.55;5.20;;;;;;;15.43;66.27;100394.81;1708536;82;21346;-54
2023/06/14 01:58:21;;;;;;;10.35;5.12;;;;;;;15.40;66.20;100396.61;1708508;84;21358;-54
2023/06/14 02:01:27;;;;;;;9.90;5.70;;;;;;;15.37;66.22;100393.37;1708507;84;21370;-56
2023/06/14 02:04:34;;;;;;;9.98;5.30;;;;;;;15.33;66.27;100391.59;1708443;84;21212;-55
2023/06/14 02:07:40;;;;;;;8.10;5.58;;;;;;;15.31;66.34;100392.31;1715787;81;21366;-53
2023/06/14 02:10:46;;;;;;;10.82;5.90;;;;;;;15.29;66.45;100404.07;1736506;82;21358;-53
2023/06/14 02:13:52;;;;;;;11.55;5.65;;;;;;;15.30;66.52;100404.38;1736725;82;21365;-54
2023/06/14 02:17:00;;;;;;;8.15;5.80;;;;;;;15.29;66.56;100398.55;1736605;82;21370;-55
2023/06/14 02:20:08;;;;;;;8.68;5.17;;;;;;;15.28;66.59;100401.00;1736500;82;21326;-55
2023/06/14 02:23:14;;;;;;;10.35;5.83;;;;;;;15.26;66.62;100403.11;1736542;82;21933;-54
2023/06/14 02:26:28;;;;;;;9.45;5.50;;;;;;;15.27;66.73;100406.17;1736071;82;21366;-55
2023/06/14 02:29:35;;;;;;;13.10;5.40;;;;;;;15.28;66.77;100413.41;1736681;82;21378;-53
2023/06/14 02:32:42;;;;;;;9.23;5.62;;;;;;;15.29;66.92;100416.48;1736507;82;21231;-54
2023/06/14 02:35:49;;;;;;;9.30;5.42;;;;;;;15.32;67.02;100421.59;1736547;82;21848;-54
2023/06/14 02:38:57;;;;;;;8.98;5.60;;;;;;;15.36;67.13;100411.86;1736543;82;21424;-53
2023/06/14 02:42:03;;;;;;;10.85;5.62;;;;;;;15.37;67.15;100419.06;1736585;82;21433;-53
2023/06/14 02:45:09;;;;;;;10.72;5.78;;;;;;;15.40;67.21;100429.72;1736597;82;21382;-53
2023/06/14 02:48:15;;;;;;;10.03;5.22;;;;;;;15.42;67.32;100428.99;1716544;82;21397;-53
2023/06/14 02:51:22;;;;;;;10.70;5.67;;;;;;;15.45;67.33;100433.23;1736496;82;21354;-54
2023/06/14 02:54:30;;;;;;;10.75;5.60;;;;;;;15.46;67.36;100436.34;1736486;82;21389;-54
2023/06/14 02:57:37;;;;;;;15.93;6.67;;;;;;;15.46;67.35;100438.55;1736464;82;21342;-54
2023/06/14 03:00:45;;;;;;;14.75;6.92;;;;;;;15.45;67.37;100440.13;1736618;82;21398;-53
2023/06/14 03:03:51;;;;;;;9.00;6.78;;;;;;;15.44;67.34;100441.20;1736586;82;21377;-54
2023/06/14 03:07:02;;;;;;;11.33;6.62;;;;;;;15.43;67.46;100427.92;1736672;82;21401;-53
2023/06/14 03:10:09;;;;;;;15.23;7.75;;;;;;;15.45;67.57;100431.86;1730344;82;21732;-54
2023/06/14 03:13:15;;;;;;;14.63;9.40;;;;;;;15.47;67.63;100433.89;1736675;82;21243;-53
2023/06/14 03:16:23;;;;;;;13.62;9.23;;;;;;;15.48;67.66;100424.54;1736546;82;21366;-54
2023/06/14 03:19:30;;;;;;;12.50;7.17;;;;;;;15.50;67.73;100427.44;1711769;82;21362;-54
2023/06/14 03:22:37;;;;;;;9.15;6.17;;;;;;;15.56;67.82;100426.60;1736604;82;21375;-55
2023/06/14 03:25:45;;;;;;;11.30;6.53;;;;;;;15.63;67.83;100430.25;1736535;82;21393;-55
2023/06/14 03:28:50;;;;;;;14.03;6.83;;;;;;;15.66;67.87;100432.59;1736652;82;21423;-54
2023/06/14 03:32:06;;;;;;;9.40;6.28;;;;;;;15.72;67.97;100423.48;1736512;82;21879;-54
2023/06/14 03:35:18;;;;;;;8.65;5.95;;;;;;;15.78;68.10;100424.02;1736589;82;21413;-53
2023/06/14 03:38:22;;;;;;;9.95;5.62;;;;;;;15.89;68.18;100433.06;1736397;82;21898;-51
2023/06/14 03:41:28;;;;;;;13.13;6.62;;;;;;;15.92;68.18;100438.17;1736501;82;21350;-53
2023/06/14 03:44:35;;;;;;;13.83;6.60;;;;;;;16.00;68.26;100426.93;1736508;82;21362;-53
2023/06/14 03:47:42;;;;;;;11.43;6.80;;;;;;;16.10;68.25;100427.91;1736523;82;21402;-52
2023/06/14 03:50:49;;;;;;;11.10;6.70;;;;;;;16.20;68.27;100433.35;1736560;82;21832;-55
2023/06/14 03:53:57;;;;;;;10.23;6.20;;;;;;;16.25;68.23;100432.16;1736350;82;21389;-54
2023/06/14 03:57:03;;;;;;;14.43;6.55;;;;;;;16.33;68.27;100436.10;1736506;82;21401;-54
2023/06/14 04:00:12;;;;;;;17.70;6.90;;;;;;;16.38;68.27;100439.09;1736535;82;21334;-56
2023/06/14 04:03:19;;;;;;;17.98;8.40;;;;;;;16.38;68.09;100443.75;1736508;82;21341;-54
2023/06/14 04:06:31;;;;;;;14.80;6.42;;;;;;;16.43;68.29;100444.83;1736513;82;21381;-54
2023/06/14 04:09:34;;;;;;;12.88;6.37;;;;;;;16.54;68.36;100444.75;1733599;82;21874;-52
2023/06/14 04:12:41;;;;;;;11.88;6.62;;;;;;;16.67;68.53;100447.52;1737874;82;21208;-53
2023/06/14 04:15:46;;;;;;;12.73;6.70;;;;;;;16.78;68.48;100448.77;1738385;82;21227;-53
2023/06/14 04:18:55;;;;;;;15.23;7.08;;;;;;;16.86;68.42;100449.41;1738432;82;21259;-54
2023/06/14 04:22:01;;;;;;;13.68;6.70;;;;;;;16.91;68.33;100453.77;1738451;82;21469;-55
2023/06/14 04:25:08;;;;;;;12.47;7.60;;;;;;;16.99;68.36;100457.70;1738571;82;21342;-53
2023/06/14 04:28:19;;;;;;;12.70;6.78;;;;;;;17.02;68.20;100449.48;1738911;82;21906;-53
2023/06/14 04:31:25;;;;;;;11.68;7.47;;;;;;;17.06;68.15;100448.01;1738895;82;21338;-54
2023/06/14 04:34:37;;;;;;;13.72;7.42;;;;;;;17.08;68.09;100448.62;1738810;82;21223;-54
2023/06/14 04:37:45;;;;;;;13.88;8.65;;;;;;;17.05;68.13;100446.28;1738765;82;21487;-53
2023/06/14 04:40:52;;;;;;;11.65;7.83;;;;;;;17.07;68.18;100444.16;1738612;82;21362;-52
2023/06/14 04:44:01;;;;;;;13.05;7.75;;;;;;;17.11;68.24;100439.92;1739590;82;21886;-53
2023/06/14 04:47:09;;;;;;;12.13;7.45;;;;;;;17.18;68.28;100435.20;1732185;81;21486;-53
2023/06/14 04:50:17;;;;;;;13.65;9.93;;;;;;;17.25;68.34;100436.04;1700495;84;21189;-53
2023/06/14 04:53:28;;;;;;;16.27;10.58;;;;;;;17.32;68.38;100429.93;1700725;84;21224;-53
2023/06/14 04:56:33;;;;;;;17.62;10.23;;;;;;;17.33;68.25;100422.80;1700279;84;21749;-52
2023/06/14 04:59:39;;;;;;;18.55;9.20;;;;;;;17.35;68.28;100430.88;1700184;84;21240;-54
2023/06/14 05:02:48;;;;;;;14.53;9.43;;;;;;;17.41;68.35;100441.09;1697473;83;21251;-55
2023/06/14 05:05:54;;;;;;;20.45;9.78;;;;;;;17.53;68.52;100439.37;1742372;82;22063;-56
2023/06/14 05:09:00;;;;;;;13.22;9.55;;;;;;;17.62;68.48;100436.13;1742484;81;21275;-53
2023/06/14 05:12:07;;;;;;;17.00;11.18;;;;;;;17.74;68.56;100431.58;1743378;81;21362;-54
2023/06/14 05:15:14;;;;;;;23.30;12.28;;;;;;;17.88;68.48;100429.61;1737897;82;21798;-53
2023/06/14 05:18:21;;;;;;;21.20;11.60;;;;;;;17.93;68.24;100433.95;1733611;82;21217;-54
2023/06/14 05:21:26;;;;;;;17.95;11.95;;;;;;;17.99;68.30;100428.91;1737834;82;21385;-53
2023/06/14 05:24:34;;;;;;;20.55;14.20;;;;;;;18.07;68.20;100438.34;1735681;82;21243;-54
2023/06/14 05:27:41;;;;;;;24.65;14.83;;;;;;;18.09;68.05;100432.57;1733509;82;21219;-53
2023/06/14 05:30:49;;;;;;;25.27;15.38;;;;;;;18.17;68.17;100437.29;1739093;82;21251;-53
2023/06/14 05:33:56;;;;;;;21.85;15.32;;;;;;;18.24;68.11;100425.63;1738599;82;21208;-53
2023/06/14 05:37:03;;;;;;;20.90;15.43;;;;;;;18.36;68.22;100421.05;1748990;82;21378;-53
2023/06/14 05:40:08;;;;;;;20.02;14.30;;;;;;;18.53;68.29;100433.34;1748740;82;21358;-53
2023/06/14 05:43:13;;;;;;;24.60;15.08;;;;;;;18.63;68.08;100425.34;1740331;82;21375;-53
2023/06/14 05:46:24;;;;;;;23.27;14.95;;;;;;;18.72;67.98;100426.77;1739700;82;21378;-55
2023/06/14 05:49:30;;;;;;;20.00;14.53;;;;;;;18.78;67.88;100434.17;1739411;82;21421;-53
2023/06/14 05:52:38;;;;;;;65.12;18.37;;;;;;;18.95;67.96;100419.16;1739656;82;21892;-56
2023/06/14 05:55:43;;;;;;;28.65;15.80;;;;;;;19.13;67.89;100425.60;1738941;82;21462;-56
2023/06/14 05:58:50;;;;;;;28.98;14.80;;;;;;;19.27;67.86;100420.73;1749419;82;21995;-52
2023/06/14 06:01:58;;;;;;;22.65;15.25;;;;;;;19.52;67.93;100417.92;1739953;82;21350;-55
2023/06/14 06:05:05;;;;;;;18.77;14.93;;;;;;;19.58;67.49;100415.06;1734852;82;22029;-55
2023/06/14 06:08:11;;;;;;;24.67;15.45;;;;;;;19.62;67.28;100423.75;1731231;82;21215;-54
2023/06/14 06:11:16;;;;;;;19.67;13.85;;;;;;;19.56;66.88;100424.16;1704317;84;21369;-53
2023/06/14 06:14:34;;;;;;;23.02;16.12;;;;;;;19.49;66.76;100430.32;1728365;82;21712;-53
2023/06/14 06:17:39;;;;;;;29.55;15.90;;;;;;;19.37;66.65;100426.64;1744361;82;21698;-56
2023/06/14 06:20:47;;;;;;;24.82;15.20;;;;;;;19.33;66.72;100423.17;1744345;81;21439;-53
2023/06/14 06:23:54;;;;;;;21.37;15.32;;;;;;;19.31;66.68;100430.34;1743462;81;21381;-51
2023/06/14 06:27:02;;;;;;;19.65;14.55;;;;;;;19.33;66.82;100430.41;1742510;81;21433;-52
2023/06/14 06:30:08;;;;;;;16.25;13.30;;;;;;;19.49;66.92;100418.39;1742436;81;21303;-53
2023/06/14 06:33:14;;;;;;;20.88;15.50;;;;;;;19.71;67.03;100409.30;1742761;81;21868;-51
2023/06/14 06:36:21;;;;;;;21.15;15.20;;;;;;;19.83;66.89;100417.70;1743246;81;21393;-52
2023/06/14 06:39:28;;;;;;;21.55;14.95;;;;;;;19.94;66.75;100421.08;1729675;81;21370;-51
2023/06/14 06:42:33;;;;;;;28.62;14.85;;;;;;;20.11;66.78;100426.27;1740482;82;21934;-51
2023/06/14 06:45:40;;;;;;;21.50;14.78;;;;;;;20.29;66.72;100415.12;1737840;82;21366;-50
2023/06/14 06:48:47;;;;;;;22.20;14.55;;;;;;;20.39;66.41;100411.23;1738186;82;21254;-53
2023/06/14 06:52:09;;;;;;;19.52;13.98;;;;;;;20.50;66.37;100415.96;1738517;82;21708;-53
2023/06/14 06:55:18;;;;;;;29.80;14.53;;;;;;;20.54;66.12;100415.77;1738908;82;21336;-52
2023/06/14 06:58:23;;;;;;;20.52;13.05;;;;;;;20.63;66.04;100415.18;1717337;82;21884;-52
2023/06/14 07:01:33;;;;;;;18.00;11.93;;;;;;;20.69;65.80;100410.61;1738637;82;21251;-52
2023/06/14 07:04:41;;;;;;;20.85;11.57;;;;;;;20.70;65.75;100416.46;1717975;82;21357;-53
2023/06/14 07:07:47;;;;;;;16.80;11.40;;;;;;;20.51;65.41;100407.91;1739635;82;21266;-53
2023/06/14 07:10:55;;;;;;;17.65;11.57;;;;;;;20.41;65.45;100403.47;1744001;82;21351;-53
2023/06/14 07:14:00;;;;;;;23.07;11.22;;;;;;;20.42;65.54;100399.63;1743684;82;21409;-51
2023/06/14 07:17:06;;;;;;;21.20;11.25;;;;;;;20.41;65.53;100402.94;1740237;82;21355;-52
2023/06/14 07:20:13;;;;;;;13.35;10.28;;;;;;;20.47;65.68;100398.36;1740119;82;21919;-51
2023/06/14 07:23:18;;;;;;;18.27;9.85;;;;;;;20.46;65.58;100398.05;1740289;82;21347;-52
2023/06/14 07:26:25;;;;;;;16.48;8.63;;;;;;;20.50;65.67;100396.49;1735275;81;21457;-54
2023/06/14 07:29:31;;;;;;;13.95;7.55;;;;;;;20.49;65.46;100398.42;1726657;82;21267;-52
2023/06/14 07:32:38;;;;;;;26.80;7.78;;;;;;;20.45;65.40;100390.80;1728816;83;21345;-52
2023/06/14 07:35:45;;;;;;;10.80;6.62;;;;;;;20.53;65.52;100396.02;1718098;82;22029;-54
2023/06/14 07:38:51;;;;;;;13.93;6.40;;;;;;;20.48;65.28;100387.00;1717990;83;21235;-52
2023/06/14 07:41:57;;;;;;;14.47;6.00;;;;;;;20.52;65.37;100389.59;1718842;82;21374;-52
2023/06/14 07:45:05;;;;;;;12.50;5.87;;;;;;;20.61;65.36;100392.87;1733670;82;21193;-52
2023/06/14 07:48:13;;;;;;;9.35;5.62;;;;;;;20.63;65.21;100394.84;1725865;82;21476;-52
2023/06/14 07:51:18;;;;;;;14.23;6.15;;;;;;;20.72;65.28;100393.42;1705757;81;21386;-51
2023/06/14 07:54:26;;;;;;;13.15;5.35;;;;;;;20.79;65.29;100392.20;1732069;82;21762;-52
2023/06/14 07:57:26;;;;;;;13.00;5.50;;;;;;;20.92;65.19;100395.83;1723426;82;21172;-51
2023/06/14 08:00:33;;;;;;;18.87;5.60;;;;;;;20.98;65.08;100391.56;1728566;82;21264;-53
2023/06/14 08:03:39;;;;;;;17.57;5.33;;;;;;;21.02;64.87;100393.32;1727160;82;21212;-54
2023/06/14 08:06:45;;;;;;;29.02;5.60;;;;;;;20.98;64.70;100397.13;1725361;82;21390;-53
2023/06/14 08:09:53;;;;;;;10.20;5.55;;;;;;;20.99;64.61;100397.98;1732622;83;21795;-52
2023/06/14 08:13:01;;;;;;;15.58;5.28;;;;;;;20.99;64.60;100397.45;1713409;82;22203;-53
2023/06/14 08:16:06;;;;;;;12.40;5.20;;;;;;;21.05;64.49;100389.52;1734814;81;21527;-52
2023/06/14 08:19:12;;;;;;;9.48;5.00;;;;;;;21.08;64.47;100394.59;1735034;82;21215;-51
2023/06/14 08:22:18;;;;;;;12.35;5.03;;;;;;;21.13;64.46;100389.14;1738840;82;21244;-51
2023/06/14 08:25:23;;;;;;;16.23;4.75;;;;;;;21.14;64.18;100394.14;1719160;82;21753;-53
2023/06/14 08:28:31;;;;;;;10.18;5.17;;;;;;;21.18;64.20;100387.01;1722930;81;21183;-54
2023/06/14 08:31:38;;;;;;;10.30;4.75;;;;;;;21.31;64.34;100391.75;1706428;82;21629;-53
2023/06/14 08:34:45;;;;;;;13.10;5.40;;;;;;;21.47;64.31;100392.39;1699421;84;21215;-52
2023/06/14 08:37:53;;;;;;;11.50;5.33;;;;;;;21.57;64.12;100383.39;1735719;82;21193;-52
2023/06/14 08:40:59;;;;;;;13.83;5.40;;;;;;;21.60;63.84;100382.36;1710907;82;21231;-53
2023/06/14 08:44:07;;;;;;;10.68;4.60;;;;;;;21.54;63.62;100381.11;1738860;82;21267;-50
2023/06/14 08:47:12;;;;;;;16.67;5.72;;;;;;;21.58;63.62;100379.53;1730377;81;21784;-53
2023/06/14 08:50:19;;;;;;;19.50;5.30;;;;;;;21.66;63.62;100382.75;1729951;81;21259;-54
2023/06/14 08:53:27;;;;;;;13.83;5.03;;;;;;;21.79;63.67;100378.86;1719004;82;21802;-54
2023/06/14 08:56:43;;;;;;;13.20;5.62;;;;;;;21.90;63.47;100377.95;1718000;82;21204;-52
2023/06/14 08:59:54;;;;;;;14.00;4.92;;;;;;;21.95;63.28;100365.52;1698878;82;21240;-56
2023/06/14 09:03:02;;;;;;;14.85;4.83;;;;;;;22.00;63.21;100367.87;1729233;82;21780;-54
2023/06/14 09:06:13;;;;;;;11.10;5.20;;;;;;;22.07;63.11;100363.53;1734507;82;21509;-51
2023/06/14 09:09:19;;;;;;;10.10;4.97;;;;;;;22.19;63.09;100370.73;1726143;82;21278;-56
2023/06/14 09:12:26;;;;;;;11.78;5.10;;;;;;;22.20;62.89;100357.61;1735180;82;21231;-55
2023/06/14 09:15:33;;;;;;;14.20;4.85;;;;;;;22.26;62.83;100357.16;1716359;81;21779;-57
2023/06/14 09:18:48;;;;;;;13.65;4.22;;;;;;;22.33;62.74;100352.25;1728901;82;21234;-58
2023/06/14 09:21:56;;;;;;;10.13;5.20;;;;;;;22.41;62.65;100344.86;1718917;81;21623;-57
2023/06/14 09:25:02;;;;;;;11.60;4.70;;;;;;;22.57;62.70;100344.89;1699327;83;21254;-58
2023/06/14 09:28:18;;;;;;;17.55;4.40;;;;;;;22.73;62.58;100346.83;1700722;84;21199;-56
2023/06/14 09:31:29;;;;;;;16.30;4.85;;;;;;;22.86;62.47;100344.23;1701335;84;21748;-56
2023/06/14 09:34:34;;;;;;;10.40;4.12;;;;;;;22.97;62.26;100347.46;1701472;84;21238;-58
2023/06/14 09:37:43;;;;;;;13.03;5.00;;;;;;;23.06;62.19;100340.31;1683752;84;21222;-58
2023/06/14 09:40:48;;;;;;;11.40;4.45;;;;;;;23.15;61.83;100334.59;1705461;83;21199;-56
2023/06/14 09:44:00;;;;;;;11.53;4.45;;;;;;;23.19;61.64;100334.36;1717837;82;21263;-55
2023/06/14 09:47:08;;;;;;;14.63;4.40;;;;;;;23.28;61.59;100341.20;1730587;83;21375;-56
2023/06/14 09:50:16;;;;;;;17.00;4.87;;;;;;;23.32;61.40;100328.42;1730273;83;21193;-55
2023/06/14 09:53:26;;;;;;;13.35;4.35;;;;;;;23.38;61.28;100324.58;1730523;83;21283;-56
2023/06/14 09:56:37;;;;;;;10.20;4.08;;;;;;;23.48;61.30;100318.55;1730503;83;21227;-55
2023/06/14 09:59:43;;;;;;;15.53;4.33;;;;;;;23.66;61.24;100331.34;1725406;83;21291;-55
2023/06/14 10:02:51;;;;;;;15.40;4.92;;;;;;;23.81;61.09;100332.92;1727554;81;21223;-54
2023/06/14 10:06:01;;;;;;;19.10;5.30;;;;;;;23.84;60.81;100315.61;1731258;82;21863;-56
2023/06/14 10:09:09;;;;;;;13.68;4.42;;;;;;;23.85;60.59;100321.48;1711778;82;21210;-55
2023/06/14 10:12:20;;;;;;;12.30;5.40;;;;;;;23.88;60.59;100321.53;1698936;83;21196;-55
2023/06/14 10:15:32;;;;;;;13.78;4.58;;;;;;;23.84;60.23;100317.55;1731773;81;21234;-55
2023/06/14 10:18:54;;;;;;;14.63;5.12;;;;;;;23.84;60.15;100321.20;1701126;82;21830;-54
2023/06/14 10:22:09;;;;;;;11.18;4.28;;;;;;;23.90;60.26;100315.09;1734853;82;21227;-56
2023/06/14 10:25:35;;;;;;;11.08;4.37;;;;;;;24.18;60.47;100312.89;1736897;82;21207;-55
2023/06/14 10:28:40;;;;;;;13.58;5.22;;;;;;;24.32;60.13;100316.95;1712997;82;21216;-56
2023/06/14 10:31:58;;;;;;;13.22;5.42;;;;;;;24.43;59.90;100310.33;1704619;84;21196;-57
2023/06/14 10:35:13;;;;;;;9.48;4.47;;;;;;;24.58;59.83;100309.02;1716076;82;21243;-56
2023/06/14 10:38:22;;;;;;;11.48;4.22;;;;;;;24.69;59.50;100311.36;1728996;81;21269;-55
2023/06/14 10:41:30;;;;;;;16.90;4.75;;;;;;;24.69;59.23;100312.22;1723820;81;21774;-53
2023/06/14 10:44:51;;;;;;;12.55;4.50;;;;;;;24.79;59.20;100299.69;1729229;81;21771;-53
2023/06/14 10:47:57;;;;;;;14.30;4.30;;;;;;;24.95;59.12;100301.47;1725768;83;21208;-52
2023/06/14 10:51:08;;;;;;;12.95;5.08;;;;;;;25.17;59.02;100300.44;1733358;82;21409;-53
2023/06/14 10:54:14;;;;;;;15.45;4.65;;;;;;;25.25;58.50;100306.92;1735202;82;21911;-52
2023/06/14 10:57:21;;;;;;;16.95;4.22;;;;;;;25.18;58.21;100297.36;1684470;82;21201;-52
2023/06/14 11:00:38;;;;;;;16.25;4.53;;;;;;;25.11;57.74;100295.39;1728842;82;21247;-53
2023/06/14 11:03:59;;;;;;;12.55;4.40;;;;;;;25.02;57.69;100290.02;1725027;82;21191;-55
2023/06/14 11:07:12;;;;;;;16.17;4.85;;;;;;;25.11;57.85;100278.58;1729384;82;21208;-56
2023/06/14 11:10:43;;;;;;;16.57;4.67;;;;;;;25.15;57.62;100277.47;1720390;82;21732;-56
2023/06/14 11:13:51;;;;;;;11.35;4.87;;;;;;;25.23;57.53;100274.97;1722412;82;21243;-56
2023/06/14 11:16:58;;;;;;;13.43;4.70;;;;;;;25.29;57.40;100277.25;1730271;81;21207;-56
2023/06/14 11:20:22;;;;;;;24.32;5.62;;;;;;;25.35;57.18;100272.83;1726032;82;21772;-53
2023/06/14 11:23:29;;;;;;;14.23;5.22;;;;;;;25.39;56.98;100278.70;1708574;84;21235;-54
2023/06/14 11:26:36;;;;;;;20.85;6.83;;;;;;;25.54;57.07;100271.20;1724275;82;21212;-55
2023/06/14 11:29:42;;;;;;;13.72;6.17;;;;;;;25.74;57.01;100281.05;1734966;82;21382;-55
2023/06/14 11:32:56;;;;;;;14.93;6.03;;;;;;;25.78;56.58;100272.94;1709929;84;21220;-56
2023/06/14 11:36:01;;;;;;;16.02;6.97;;;;;;;25.77;56.27;100271.23;1715881;82;21382;-55
2023/06/14 11:39:10;;;;;;;16.25;6.33;;;;;;;25.71;56.05;100265.34;1736613;82;21287;-55
2023/06/14 11:42:18;;;;;;;15.58;6.67;;;;;;;25.79;56.03;100269.00;1737273;82;21247;-55
2023/06/14 11:45:27;;;;;;;14.75;6.97;;;;;;;25.76;55.73;100259.73;1700117;82;21223;-56
2023/06/14 11:48:48;;;;;;;18.65;6.90;;;;;;;25.81;55.63;100261.16;1723807;82;21389;-55
2023/06/14 11:51:56;;;;;;;16.00;6.92;;;;;;;25.86;55.33;100266.78;1732983;82;21200;-57
2023/06/14 11:55:07;;;;;;;16.23;7.08;;;;;;;25.88;55.11;100264.52;1708468;84;21227;-57
2023/06/14 11:58:14;;;;;;;12.18;6.00;;;;;;;25.87;54.91;100268.45;1735136;82;21358;-54
2023/06/14 12:01:25;;;;;;;11.65;6.83;;;;;;;25.82;54.66;100272.64;1728951;82;21223;-55
2023/06/14 12:04:36;;;;;;;17.95;6.75;;;;;;;25.76;54.50;100274.62;1713767;83;21216;-55
2023/06/14 12:07:45;;;;;;;16.45;6.55;;;;;;;25.73;54.37;100272.92;1740073;82;21254;-54
2023/06/14 12:10:53;;;;;;;18.27;6.35;;;;;;;25.80;54.36;100270.70;1714142;82;21358;-57
2023/06/14 12:14:01;;;;;;;11.73;7.00;;;;;;;25.86;54.17;100273.80;1731656;81;21909;-60
2023/06/14 12:17:17;;;;;;;13.93;6.47;;;;;;;25.85;53.84;100265.92;1717916;82;21771;-59
2023/06/14 12:20:24;;;;;;;13.90;5.42;;;;;;;25.86;53.75;100269.00;1717665;81;21243;-60
2023/06/14 12:23:34;;;;;;;14.28;6.55;;;;;;;25.84;53.54;100278.28;1675521;84;21410;-59
2023/06/14 12:26:44;;;;;;;13.90;6.12;;;;;;;25.86;53.36;100272.39;1738506;82;21753;-59
2023/06/14 12:29:51;;;;;;;18.87;6.37;;;;;;;25.96;53.34;100272.38;1737928;82;21223;-57
2023/06/14 12:32:57;;;;;;;14.25;5.92;;;;;;;26.08;53.18;100270.20;1736288;82;21227;-57
2023/06/14 12:36:04;;;;;;;18.75;5.78;;;;;;;26.23;53.09;100268.78;1711549;83;21433;-57
2023/06/14 12:39:11;;;;;;;12.05;6.12;;;;;;;26.33;52.85;100271.59;1710248;83;21906;-60
2023/06/14 12:42:17;;;;;;;11.18;5.75;;;;;;;26.35;52.64;100263.73;1710069;83;22056;-55
2023/06/14 12:45:23;;;;;;;14.47;6.33;;;;;;;26.43;52.52;100272.41;1717073;82;21215;-55
2023/06/14 12:48:30;;;;;;;16.15;5.47;;;;;;;26.44;52.20;100267.66;1725293;82;21470;-56
2023/06/14 12:51:36;;;;;;;21.68;6.28;;;;;;;26.40;51.97;100270.77;1704924;83;21266;-56
2023/06/14 12:54:43;;;;;;;13.58;5.60;;;;;;;26.35;51.88;100261.75;1732617;82;21390;-54
2023/06/14 12:57:50;;;;;;;32.60;6.62;;;;;;;26.34;51.72;100264.29;1735984;82;21366;-55
2023/06/14 13:00:57;;;;;;;13.50;5.60;;;;;;;26.39;51.59;100269.05;1737703;82;21354;-57
2023/06/14 13:04:04;;;;;;;19.80;6.05;;;;;;;26.40;51.41;100249.70;1716523;82;21358;-55
2023/06/14 13:07:14;;;;;;;11.70;5.55;;;;;;;26.51;51.41;100263.16;1734925;82;21339;-55
2023/06/14 13:10:20;;;;;;;14.18;6.15;;;;;;;26.56;51.28;100270.17;1714645;82;21326;-53
2023/06/14 13:13:28;;;;;;;15.78;6.35;;;;;;;26.61;51.23;100265.38;1722805;82;22134;-56
2023/06/14 13:16:35;;;;;;;12.05;6.30;;;;;;;26.70;51.08;100265.13;1711179;82;21596;-54
2023/06/14 13:19:46;;;;;;;17.10;5.85;;;;;;;26.74;50.78;100259.76;1691140;82;21243;-54
2023/06/14 13:22:51;;;;;;;20.48;5.75;;;;;;;26.65;50.48;100260.92;1672113;84;21196;-53
2023/06/14 13:25:58;;;;;;;12.55;4.72;;;;;;;26.58;50.35;100263.13;1680499;84;21227;-54
2023/06/14 13:29:04;;;;;;;12.05;6.03;;;;;;;26.43;50.29;100249.95;1679477;83;21272;-53
2023/06/14 13:32:11;;;;;;;10.38;5.10;;;;;;;26.35;50.27;100246.89;1677509;84;21280;-54
2023/06/14 13:35:17;;;;;;;12.68;5.35;;;;;;;26.30;50.13;100255.31;1650025;83;21220;-54
2023/06/14 13:38:24;;;;;;;10.58;4.75;;;;;;;26.22;50.10;100249.72;1664704;84;21231;-54
2023/06/14 13:41:32;;;;;;;13.10;5.35;;;;;;;26.26;50.05;100242.95;1677546;84;21587;-54
2023/06/14 13:44:39;;;;;;;14.63;4.95;;;;;;;26.38;50.13;100242.97;1675128;84;21760;-54
2023/06/14 13:47:48;;;;;;;9.35;5.00;;;;;;;26.57;50.05;100240.95;1670044;84;21227;-53
2023/06/14 13:50:53;;;;;;;14.40;4.75;;;;;;;26.65;49.78;100241.81;1691543;84;21228;-54
2023/06/14 13:53:58;;;;;;;8.55;4.78;;;;;;;26.57;49.51;100250.23;1673014;84;21320;-53
2023/06/14 13:57:06;;;;;;;11.85;4.80;;;;;;;26.48;49.34;100250.53;1677781;84;21208;-54
2023/06/14 14:00:15;;;;;;;9.90;5.05;;;;;;;26.45;49.17;100249.12;1681710;84;21531;-54
2023/06/14 14:03:23;;;;;;;15.90;5.28;;;;;;;26.35;49.11;100241.28;1650506;86;21284;-56
2023/06/14 14:06:28;;;;;;;14.03;4.45;;;;;;;26.41;49.15;100239.59;1669658;84;21293;-56
2023/06/14 14:09:34;;;;;;;15.15;5.40;;;;;;;26.56;49.18;100232.27;1686922;84;21237;-56
2023/06/14 14:12:41;;;;;;;11.43;5.10;;;;;;;26.62;49.04;100243.20;1683833;84;21247;-56
2023/06/14 14:15:49;;;;;;;12.70;5.37;;;;;;;26.52;48.77;100242.36;1700595;83;21228;-54
2023/06/14 14:18:56;;;;;;;14.10;5.00;;;;;;;26.42;48.67;100241.81;1697886;83;21214;-55
2023/06/14 14:22:04;;;;;;;7.28;5.15;;;;;;;26.32;48.50;100247.47;1728006;81;21219;-55
2023/06/14 14:25:08;;;;;;;14.75;5.37;;;;;;;26.20;48.49;100251.10;1756368;81;21238;-55